Time;durP1;ratioP1;P1;durP2;ratioP2;P2;SDS_P1;SDS_P2;PMS_P1;PMS_P2;Temp;Humidity;BMP_temperature;BMP_pressure;BME280_temperature;BME280_humidity;BME280_pressure;Samples;Min_cycle;Max_cycle;Signal;HPM_P1;HPM_P2
2022/03/27 00:00:22;;;;;;;8.43;5.20;;;;;;;;;;5079058;28;20090;-86
2022/03/27 00:02:48;;;;;;;11.05;5.80;;;;;;;;;;5079557;28;20413;-85
2022/03/27 00:05:13;;;;;;;13.05;7.32;;;;;;;;;;5077947;28;20031;-85
2022/03/27 00:07:39;;;;;;;20.73;10.15;;;;;;;;;;5076555;28;20458;-84
2022/03/27 00:10:05;;;;;;;20.98;9.38;;;;;;;;;;5080054;28;20469;-85
2022/03/27 00:12:31;;;;;;;19.98;9.57;;;;;;;;;;5080110;28;20372;-84
2022/03/27 00:14:57;;;;;;;16.23;8.50;;;;;;;;;;5080880;28;20020;-85
2022/03/27 00:17:22;;;;;;;13.88;8.55;;;;;;;;;;5077910;28;20027;-84
2022/03/27 00:19:49;;;;;;;13.35;6.38;;;;;;;;;;5079374;28;20122;-84
2022/03/27 00:22:15;;;;;;;8.52;4.97;;;;;;;;;;5077093;28;20077;-83
2022/03/27 00:24:40;;;;;;;14.00;7.03;;;;;;;;;;5074849;28;20111;-82
2022/03/27 00:27:06;;;;;;;10.40;5.75;;;;;;;;;;5081177;28;20497;-82
2022/03/27 00:29:31;;;;;;;11.20;5.70;;;;;;;;;;5088887;28;20071;-81
2022/03/27 00:31:57;;;;;;;14.00;6.65;;;;;;;;;;5078041;28;20031;-83
2022/03/27 00:34:22;;;;;;;10.02;5.72;;;;;;;;;;5078029;28;20033;-83
2022/03/27 00:36:49;;;;;;;10.27;5.80;;;;;;;;;;5082285;28;20052;-82
2022/03/27 00:39:15;;;;;;;10.07;5.88;;;;;;;;;;5084114;28;20106;-82
2022/03/27 00:41:40;;;;;;;11.07;5.05;;;;;;;;;;5082844;28;20067;-81
2022/03/27 00:44:06;;;;;;;11.00;6.15;;;;;;;;;;5074306;28;20024;-82
2022/03/27 00:46:32;;;;;;;9.48;5.85;;;;;;;;;;5079466;28;20472;-83
2022/03/27 00:48:57;;;;;;;10.20;5.40;;;;;;;;;;5079643;28;20103;-82
2022/03/27 00:51:23;;;;;;;11.90;6.57;;;;;;;;;;5078828;28;20032;-85
2022/03/27 00:53:48;;;;;;;11.30;5.70;;;;;;;;;;5085116;28;20028;-85
2022/03/27 00:56:14;;;;;;;11.48;6.03;;;;;;;;;;5086785;28;20024;-84
2022/03/27 00:58:40;;;;;;;10.18;5.78;;;;;;;;;;5077656;28;20051;-85
2022/03/27 01:01:24;;;;;;;10.60;5.85;;;;;;;;;;5083974;28;20016;-85
2022/03/27 01:03:54;;;;;;;12.57;7.32;;;;;;;;;;5076214;28;20575;-84
2022/03/27 01:06:32;;;;;;;7.50;4.65;;;;;;;;;;5077453;28;20052;-84
2022/03/27 01:11:43;;;;;;;9.60;5.72;;;;;;;;;;5078448;28;21737;-84
2022/03/27 01:14:09;;;;;;;10.75;5.22;;;;;;;;;;5079728;28;20056;-83
2022/03/27 01:16:58;;;;;;;10.70;6.85;;;;;;;;;;5081623;28;20082;-86
2022/03/27 01:19:26;;;;;;;17.63;6.05;;;;;;;;;;5074545;28;20029;-84
2022/03/27 01:21:51;;;;;;;14.60;6.85;;;;;;;;;;5079426;28;20024;-83
2022/03/27 01:24:18;;;;;;;12.95;6.35;;;;;;;;;;5078476;28;20051;-84
2022/03/27 01:26:44;;;;;;;12.88;5.82;;;;;;;;;;5077355;28;20493;-84
2022/03/27 01:29:10;;;;;;;13.80;8.10;;;;;;;;;;5089270;28;20458;-85
2022/03/27 01:31:36;;;;;;;14.35;5.90;;;;;;;;;;5082848;28;20112;-85
2022/03/27 01:34:03;;;;;;;11.57;6.78;;;;;;;;;;5080503;28;20063;-85
2022/03/27 01:36:34;;;;;;;12.05;5.95;;;;;;;;;;5077490;28;20023;-84
2022/03/27 01:39:02;;;;;;;11.98;6.22;;;;;;;;;;5081277;28;20021;-84
2022/03/27 01:41:28;;;;;;;10.32;6.50;;;;;;;;;;5075140;28;20044;-83
2022/03/27 01:43:53;;;;;;;8.85;5.53;;;;;;;;;;5083897;28;20484;-84
2022/03/27 01:46:19;;;;;;;7.95;5.25;;;;;;;;;;5084454;28;20044;-82
2022/03/27 01:48:45;;;;;;;9.85;4.93;;;;;;;;;;5078819;28;20035;-84
2022/03/27 01:51:10;;;;;;;12.27;6.20;;;;;;;;;;5082671;28;20078;-83
2022/03/27 01:53:38;;;;;;;13.90;7.18;;;;;;;;;;5083204;28;20526;-84
2022/03/27 01:56:05;;;;;;;17.35;7.68;;;;;;;;;;5081706;28;20457;-83
2022/03/27 01:58:31;;;;;;;14.77;7.60;;;;;;;;;;5078234;28;20078;-83
2022/03/27 02:00:56;;;;;;;18.40;8.55;;;;;;;;;;5082864;28;20028;-85
2022/03/27 02:03:27;;;;;;;13.88;9.00;;;;;;;;;;5083179;28;20035;-84
2022/03/27 02:05:53;;;;;;;14.15;8.20;;;;;;;;;;5080945;28;20450;-83
2022/03/27 02:08:19;;;;;;;20.95;9.38;;;;;;;;;;5089987;28;20028;-84
2022/03/27 02:10:44;;;;;;;11.27;5.97;;;;;;;;;;5091721;28;20039;-85
2022/03/27 02:13:14;;;;;;;12.05;6.65;;;;;;;;;;5087317;28;20077;-85
2022/03/27 02:15:40;;;;;;;9.55;6.20;;;;;;;;;;5091397;28;20065;-85
2022/03/27 02:18:06;;;;;;;10.10;5.60;;;;;;;;;;5079734;28;20365;-85
2022/03/27 02:20:31;;;;;;;13.63;6.30;;;;;;;;;;5086683;28;20012;-85
2022/03/27 02:22:57;;;;;;;11.10;5.72;;;;;;;;;;5084119;28;20471;-84
2022/03/27 02:25:23;;;;;;;9.95;5.03;;;;;;;;;;5116908;27;20037;-85
2022/03/27 02:27:49;;;;;;;9.50;5.72;;;;;;;;;;5085670;28;20372;-85
2022/03/27 02:30:15;;;;;;;14.10;7.32;;;;;;;;;;5076386;28;20031;-85
2022/03/27 02:32:41;;;;;;;17.40;7.50;;;;;;;;;;5085274;28;20057;-84
2022/03/27 02:35:06;;;;;;;11.27;6.63;;;;;;;;;;5084265;28;20028;-84
2022/03/27 02:37:32;;;;;;;13.80;7.28;;;;;;;;;;5085949;28;20388;-86
2022/03/27 02:39:58;;;;;;;13.40;7.88;;;;;;;;;;5080678;28;20056;-85
2022/03/27 02:42:23;;;;;;;11.65;6.32;;;;;;;;;;5081246;28;20020;-84
2022/03/27 02:44:49;;;;;;;12.80;6.80;;;;;;;;;;5083427;28;20472;-83
2022/03/27 02:47:16;;;;;;;10.65;5.97;;;;;;;;;;5090745;28;20025;-85
2022/03/27 02:49:41;;;;;;;18.35;7.57;;;;;;;;;;5078754;28;20039;-85
2022/03/27 02:52:07;;;;;;;13.70;6.22;;;;;;;;;;5080807;28;20028;-84
2022/03/27 02:54:32;;;;;;;15.38;6.45;;;;;;;;;;5090107;28;20100;-86
2022/03/27 02:56:58;;;;;;;13.23;6.80;;;;;;;;;;5084298;28;20085;-85
2022/03/27 02:59:25;;;;;;;11.75;7.13;;;;;;;;;;5082868;28;20749;-85
2022/03/27 03:01:51;;;;;;;13.43;7.22;;;;;;;;;;5077609;28;20103;-85
2022/03/27 03:04:17;;;;;;;12.63;7.15;;;;;;;;;;5081347;28;20119;-86
2022/03/27 03:06:42;;;;;;;11.45;7.28;;;;;;;;;;5083075;28;20031;-85
2022/03/27 03:09:08;;;;;;;17.45;8.40;;;;;;;;;;5087079;28;20030;-83
2022/03/27 03:11:34;;;;;;;13.55;7.05;;;;;;;;;;5090773;28;20046;-86
2022/03/27 03:13:59;;;;;;;15.45;8.45;;;;;;;;;;5084702;28;20427;-86
2022/03/27 03:16:26;;;;;;;15.30;8.38;;;;;;;;;;5081128;28;20028;-85
2022/03/27 03:18:52;;;;;;;14.18;7.63;;;;;;;;;;5115608;27;20082;-85
2022/03/27 03:21:17;;;;;;;17.20;7.72;;;;;;;;;;5082023;28;20028;-85
2022/03/27 03:23:43;;;;;;;17.75;7.80;;;;;;;;;;5088005;28;20080;-84
2022/03/27 03:26:09;;;;;;;15.05;7.85;;;;;;;;;;5081299;28;20020;-84
2022/03/27 03:28:35;;;;;;;12.95;7.18;;;;;;;;;;5079794;28;20166;-85
2022/03/27 03:31:01;;;;;;;16.75;5.93;;;;;;;;;;5080263;28;20793;-85
2022/03/27 03:33:28;;;;;;;10.25;5.88;;;;;;;;;;5082968;28;20033;-85
2022/03/27 03:35:54;;;;;;;9.55;5.82;;;;;;;;;;5082075;28;20028;-84
2022/03/27 03:38:19;;;;;;;9.27;5.90;;;;;;;;;;5077895;28;20111;-85
2022/03/27 03:40:45;;;;;;;11.30;6.18;;;;;;;;;;5083685;28;20495;-84
2022/03/27 03:43:11;;;;;;;12.95;6.25;;;;;;;;;;5081656;28;20032;-83
2022/03/27 03:45:37;;;;;;;10.98;5.40;;;;;;;;;;5082952;28;20028;-82
2022/03/27 03:48:05;;;;;;;12.82;5.80;;;;;;;;;;5076081;28;20094;-85
2022/03/27 03:50:33;;;;;;;11.35;6.28;;;;;;;;;;5079564;28;20032;-86
2022/03/27 03:52:59;;;;;;;12.80;6.65;;;;;;;;;;5081171;28;20073;-86
2022/03/27 03:55:26;;;;;;;15.98;7.18;;;;;;;;;;5081011;28;20025;-85
2022/03/27 03:57:51;;;;;;;13.73;6.40;;;;;;;;;;5084773;28;20039;-84
2022/03/27 04:00:17;;;;;;;12.80;6.68;;;;;;;;;;5081838;28;20016;-85
2022/03/27 04:02:43;;;;;;;12.85;7.88;;;;;;;;;;5083295;28;20536;-85
2022/03/27 04:05:08;;;;;;;9.73;6.95;;;;;;;;;;5080173;28;20021;-83
2022/03/27 04:07:34;;;;;;;12.60;7.13;;;;;;;;;;5082188;28;20039;-85
2022/03/27 04:09:59;;;;;;;11.77;6.32;;;;;;;;;;5082134;28;20031;-85
2022/03/27 04:12:31;;;;;;;12.02;6.80;;;;;;;;;;5084231;28;20065;-86
2022/03/27 04:14:56;;;;;;;13.50;5.78;;;;;;;;;;5078384;28;20036;-85
2022/03/27 04:17:22;;;;;;;11.88;6.05;;;;;;;;;;5081886;28;20047;-85
2022/03/27 04:19:47;;;;;;;9.90;6.20;;;;;;;;;;5077128;28;20024;-84
2022/03/27 04:22:12;;;;;;;7.80;4.78;;;;;;;;;;5082854;28;20126;-85
2022/03/27 04:24:38;;;;;;;11.27;5.22;;;;;;;;;;5085610;28;20020;-84
2022/03/27 04:27:04;;;;;;;11.98;6.30;;;;;;;;;;5078973;28;20387;-85
2022/03/27 04:29:29;;;;;;;12.60;7.22;;;;;;;;;;5083591;28;20047;-85
2022/03/27 04:31:55;;;;;;;13.98;6.85;;;;;;;;;;5079350;28;20032;-85
2022/03/27 04:34:20;;;;;;;14.43;7.10;;;;;;;;;;5075291;28;20021;-85
2022/03/27 04:36:46;;;;;;;10.90;7.15;;;;;;;;;;5076226;28;20028;-84
2022/03/27 04:39:11;;;;;;;13.27;7.00;;;;;;;;;;5080143;28;20031;-84
2022/03/27 04:41:37;;;;;;;13.10;7.07;;;;;;;;;;5075647;28;20040;-85
2022/03/27 04:44:04;;;;;;;10.13;6.15;;;;;;;;;;5079781;28;20020;-84
2022/03/27 04:46:29;;;;;;;12.10;6.68;;;;;;;;;;5075811;28;20023;-85
2022/03/27 04:48:55;;;;;;;13.32;6.78;;;;;;;;;;5077479;28;20032;-85
2022/03/27 04:51:21;;;;;;;12.88;6.32;;;;;;;;;;5081144;28;20499;-85
2022/03/27 04:53:47;;;;;;;14.63;6.13;;;;;;;;;;5082842;28;20388;-85
2022/03/27 04:56:13;;;;;;;13.30;6.65;;;;;;;;;;5081496;28;20040;-84
2022/03/27 04:58:38;;;;;;;11.88;6.90;;;;;;;;;;5080211;28;20491;-86
2022/03/27 05:01:04;;;;;;;12.48;6.40;;;;;;;;;;5081404;28;20077;-86
2022/03/27 05:03:29;;;;;;;12.85;7.45;;;;;;;;;;5083626;28;20490;-86
2022/03/27 05:05:55;;;;;;;10.73;6.15;;;;;;;;;;5081027;28;20050;-83
2022/03/27 05:08:20;;;;;;;10.80;6.57;;;;;;;;;;5080920;28;20028;-84
2022/03/27 05:10:46;;;;;;;13.35;5.32;;;;;;;;;;5081644;28;20033;-84
2022/03/27 05:13:14;;;;;;;10.88;6.32;;;;;;;;;;5081647;28;20418;-84
2022/03/27 05:15:40;;;;;;;14.27;6.32;;;;;;;;;;5083326;28;20016;-85
2022/03/27 05:18:06;;;;;;;9.43;5.93;;;;;;;;;;5075109;28;20052;-84
2022/03/27 05:20:31;;;;;;;11.02;6.72;;;;;;;;;;5113997;27;20068;-83
2022/03/27 05:22:59;;;;;;;16.10;6.57;;;;;;;;;;5083941;28;20424;-83
2022/03/27 05:25:25;;;;;;;13.68;6.80;;;;;;;;;;5078632;28;20074;-83
2022/03/27 05:27:57;;;;;;;13.63;6.80;;;;;;;;;;5080894;28;20044;-84
2022/03/27 05:30:26;;;;;;;8.63;5.43;;;;;;;;;;5078002;28;20032;-84
2022/03/27 05:32:56;;;;;;;13.85;5.95;;;;;;;;;;5083762;28;20032;-85
2022/03/27 05:35:22;;;;;;;10.55;6.05;;;;;;;;;;5085664;28;20035;-84
2022/03/27 05:37:49;;;;;;;14.70;6.85;;;;;;;;;;5086726;28;20024;-83
2022/03/27 05:40:18;;;;;;;11.65;5.88;;;;;;;;;;5079861;28;20522;-83
2022/03/27 05:42:44;;;;;;;11.23;7.43;;;;;;;;;;5079719;28;20082;-84
2022/03/27 05:45:10;;;;;;;13.32;5.80;;;;;;;;;;5080782;28;20021;-84
2022/03/27 05:47:41;;;;;;;14.93;7.25;;;;;;;;;;5083406;28;20028;-84
2022/03/27 05:50:08;;;;;;;10.15;6.10;;;;;;;;;;5079406;28;20051;-85
2022/03/27 05:52:35;;;;;;;11.57;6.95;;;;;;;;;;5080770;28;20030;-85
2022/03/27 05:55:01;;;;;;;14.20;6.90;;;;;;;;;;5078235;28;20109;-84
2022/03/27 05:57:26;;;;;;;15.88;7.10;;;;;;;;;;5078642;28;20055;-85
2022/03/27 05:59:52;;;;;;;14.68;7.22;;;;;;;;;;5080129;28;20028;-85
2022/03/27 06:02:17;;;;;;;11.57;6.88;;;;;;;;;;5080003;28;20012;-84
2022/03/27 06:04:43;;;;;;;14.60;7.75;;;;;;;;;;5079893;28;20034;-85
2022/03/27 06:07:09;;;;;;;15.02;7.88;;;;;;;;;;5080827;28;20102;-84
2022/03/27 06:09:35;;;;;;;12.85;6.72;;;;;;;;;;5080648;28;20035;-84
2022/03/27 06:12:02;;;;;;;14.68;6.90;;;;;;;;;;5087906;28;20020;-84
2022/03/27 06:14:28;;;;;;;16.88;6.82;;;;;;;;;;5074181;28;20035;-85
2022/03/27 06:16:54;;;;;;;13.95;7.57;;;;;;;;;;5072929;28;20032;-82
2022/03/27 06:19:19;;;;;;;13.75;7.40;;;;;;;;;;5079713;28;20031;-83
2022/03/27 06:21:45;;;;;;;18.10;7.20;;;;;;;;;;5074951;28;20055;-83
2022/03/27 06:24:12;;;;;;;18.55;8.30;;;;;;;;;;5075870;28;20055;-82
2022/03/27 06:26:38;;;;;;;12.05;6.68;;;;;;;;;;5077188;28;20119;-81
2022/03/27 06:29:03;;;;;;;11.05;6.95;;;;;;;;;;5070331;28;20033;-84
2022/03/27 06:31:29;;;;;;;16.20;6.75;;;;;;;;;;5072646;28;20418;-82
2022/03/27 06:33:54;;;;;;;18.50;8.20;;;;;;;;;;5069257;28;20040;-82
2022/03/27 06:36:22;;;;;;;13.88;7.32;;;;;;;;;;5063336;28;20031;-82
2022/03/27 06:38:48;;;;;;;22.45;7.43;;;;;;;;;;5073561;28;20037;-84
2022/03/27 06:41:13;;;;;;;17.05;7.85;;;;;;;;;;5078162;28;20041;-83
2022/03/27 06:43:39;;;;;;;15.15;7.22;;;;;;;;;;5070581;28;20123;-82
2022/03/27 06:46:06;;;;;;;14.93;7.75;;;;;;;;;;5077683;28;20067;-82
2022/03/27 06:48:32;;;;;;;18.35;7.60;;;;;;;;;;5072127;28;20029;-84
2022/03/27 06:50:58;;;;;;;16.85;8.35;;;;;;;;;;5078165;28;21031;-83
2022/03/27 06:53:24;;;;;;;21.83;7.82;;;;;;;;;;5069549;28;20028;-81
2022/03/27 06:55:51;;;;;;;13.20;7.20;;;;;;;;;;5079717;28;20030;-80
2022/03/27 06:58:17;;;;;;;14.65;8.25;;;;;;;;;;5072267;28;20058;-80
2022/03/27 07:03:27;;;;;;;16.17;9.75;;;;;;;;;;5069683;28;20088;-80
2022/03/27 07:05:52;;;;;;;15.73;8.25;;;;;;;;;;5076579;28;20033;-81
2022/03/27 07:08:22;;;;;;;16.33;8.60;;;;;;;;;;5084728;28;20038;-82
2022/03/27 07:10:49;;;;;;;14.13;7.88;;;;;;;;;;5078713;28;20412;-80
2022/03/27 07:13:17;;;;;;;15.35;8.10;;;;;;;;;;5077755;28;20028;-80
2022/03/27 07:15:45;;;;;;;19.60;9.05;;;;;;;;;;5079705;28;20482;-82
2022/03/27 07:18:11;;;;;;;13.10;8.02;;;;;;;;;;5082751;28;20104;-83
2022/03/27 07:20:41;;;;;;;15.38;8.68;;;;;;;;;;5078987;28;20994;-83
2022/03/27 07:23:09;;;;;;;18.05;8.52;;;;;;;;;;5082618;28;20032;-85
2022/03/27 07:25:36;;;;;;;14.80;8.38;;;;;;;;;;5081915;28;20379;-85
2022/03/27 07:28:06;;;;;;;22.27;10.68;;;;;;;;;;5086097;28;20051;-84
2022/03/27 07:30:32;;;;;;;;;;;;;;;;;;5084147;28;20108;-83
2022/03/27 07:32:58;;;;;;;13.23;8.45;;;;;;;;;;5083659;28;20415;-84
2022/03/27 07:35:25;;;;;;;15.57;8.60;;;;;;;;;;5085415;28;20050;-82
2022/03/27 07:37:52;;;;;;;14.90;8.95;;;;;;;;;;5082424;28;20032;-83
2022/03/27 07:40:19;;;;;;;15.25;9.45;;;;;;;;;;5084961;28;20076;-83
2022/03/27 07:42:49;;;;;;;22.63;10.57;;;;;;;;;;5069609;28;20024;-85
2022/03/27 07:45:19;;;;;;;18.08;9.32;;;;;;;;;;5077101;28;20028;-84
2022/03/27 07:47:47;;;;;;;19.70;10.98;;;;;;;;;;5077290;28;20108;-84
2022/03/27 07:50:14;;;;;;;15.38;9.70;;;;;;;;;;5073775;28;20134;-84
2022/03/27 07:52:40;;;;;;;16.23;10.57;;;;;;;;;;5071077;28;20087;-83
2022/03/27 07:55:07;;;;;;;18.30;9.85;;;;;;;;;;5073235;28;20067;-83
2022/03/27 07:57:34;;;;;;;20.65;11.38;;;;;;;;;;5074414;28;20565;-83
2022/03/27 08:00:01;;;;;;;17.02;10.27;;;;;;;;;;5078476;28;20056;-83
2022/03/27 08:02:26;;;;;;;22.48;11.23;;;;;;;;;;5075899;28;20499;-85
2022/03/27 08:04:52;;;;;;;17.92;10.80;;;;;;;;;;5069940;28;20052;-83
2022/03/27 08:07:17;;;;;;;21.67;10.02;;;;;;;;;;5076638;28;20069;-84
2022/03/27 08:09:43;;;;;;;17.92;11.27;;;;;;;;;;5074086;28;20039;-85
2022/03/27 08:12:09;;;;;;;19.90;11.20;;;;;;;;;;5072769;28;20025;-82
2022/03/27 08:14:36;;;;;;;18.20;9.35;;;;;;;;;;5074239;28;20035;-82
2022/03/27 08:17:03;;;;;;;12.13;8.00;;;;;;;;;;5080401;28;20375;-83
2022/03/27 08:19:28;;;;;;;24.45;9.75;;;;;;;;;;5076496;28;20035;-83
2022/03/27 08:21:54;;;;;;;17.45;9.50;;;;;;;;;;5086989;28;20020;-86
2022/03/27 08:24:20;;;;;;;20.17;9.85;;;;;;;;;;5080048;28;20077;-85
2022/03/27 08:27:02;;;;;;;19.77;10.50;;;;;;;;;;5079194;28;20024;-83
2022/03/27 08:29:35;;;;;;;19.90;9.45;;;;;;;;;;5081560;28;20052;-84
2022/03/27 08:32:04;;;;;;;20.08;9.45;;;;;;;;;;5080612;28;20035;-84
2022/03/27 08:34:31;;;;;;;18.75;10.40;;;;;;;;;;5077311;28;20036;-83
2022/03/27 08:36:58;;;;;;;20.40;10.05;;;;;;;;;;5074151;28;20095;-82
2022/03/27 08:39:25;;;;;;;20.80;12.57;;;;;;;;;;5075083;28;20758;-84
2022/03/27 08:41:54;;;;;;;14.63;9.70;;;;;;;;;;5076262;28;20074;-83
2022/03/27 08:44:21;;;;;;;15.07;9.23;;;;;;;;;;5082631;28;20031;-83
2022/03/27 08:46:49;;;;;;;23.60;12.35;;;;;;;;;;5079506;28;20434;-85
2022/03/27 08:49:32;;;;;;;17.45;8.57;;;;;;;;;;5081810;28;20043;-84
2022/03/27 08:52:01;;;;;;;21.40;8.77;;;;;;;;;;5067255;28;20055;-83
2022/03/27 08:54:51;;;;;;;15.80;10.23;;;;;;;;;;5081855;28;20031;-85
2022/03/27 08:57:43;;;;;;;17.50;9.35;;;;;;;;;;5079685;28;20046;-83
2022/03/27 09:00:10;;;;;;;17.60;9.00;;;;;;;;;;5070208;28;20091;-85
2022/03/27 09:02:36;;;;;;;17.58;8.73;;;;;;;;;;5100962;27;20108;-85
2022/03/27 09:05:03;;;;;;;17.30;9.88;;;;;;;;;;5067754;28;20179;-82
2022/03/27 09:07:29;;;;;;;15.05;8.95;;;;;;;;;;5072908;28;20041;-82
2022/03/27 09:09:56;;;;;;;18.60;8.43;;;;;;;;;;5068791;28;20035;-83
2022/03/27 09:12:22;;;;;;;18.75;9.57;;;;;;;;;;5078502;28;20024;-84
2022/03/27 09:14:48;;;;;;;15.57;8.70;;;;;;;;;;5080687;28;20043;-84
2022/03/27 09:17:14;;;;;;;14.73;7.88;;;;;;;;;;5080361;28;20107;-85
2022/03/27 09:19:45;;;;;;;18.48;9.95;;;;;;;;;;5080588;28;20686;-85
2022/03/27 09:22:22;;;;;;;17.27;10.20;;;;;;;;;;5074187;28;20103;-84
2022/03/27 09:24:56;;;;;;;16.10;8.43;;;;;;;;;;5082238;28;20028;-86
2022/03/27 09:27:32;;;;;;;18.55;9.73;;;;;;;;;;5070454;28;20027;-84
2022/03/27 09:30:11;;;;;;;14.32;8.45;;;;;;;;;;5082787;28;20040;-84
2022/03/27 09:32:42;;;;;;;16.58;9.73;;;;;;;;;;5074875;28;20020;-84
2022/03/27 09:35:09;;;;;;;16.75;9.07;;;;;;;;;;5074037;28;20028;-85
2022/03/27 09:37:47;;;;;;;14.27;8.95;;;;;;;;;;5077493;28;20028;-85
2022/03/27 09:40:14;;;;;;;16.98;9.10;;;;;;;;;;5081171;28;20067;-85
2022/03/27 09:42:41;;;;;;;15.98;9.73;;;;;;;;;;5078403;28;20460;-85
2022/03/27 09:45:19;;;;;;;16.90;9.48;;;;;;;;;;5068590;28;20049;-83
2022/03/27 09:47:50;;;;;;;15.82;9.95;;;;;;;;;;5071278;28;20040;-85
2022/03/27 09:50:35;;;;;;;14.52;8.82;;;;;;;;;;5074171;28;20029;-85
2022/03/27 09:53:36;;;;;;;15.25;9.45;;;;;;;;;;5069577;28;20052;-85
2022/03/27 09:56:01;;;;;;;14.55;9.00;;;;;;;;;;5083980;28;20039;-85
2022/03/27 09:58:37;;;;;;;15.18;8.52;;;;;;;;;;5088579;28;20400;-86
2022/03/27 10:01:14;;;;;;;12.13;7.32;;;;;;;;;;5069930;28;20043;-84
2022/03/27 10:04:08;;;;;;;14.45;8.05;;;;;;;;;;5070022;28;20031;-85
2022/03/27 10:06:39;;;;;;;14.23;7.95;;;;;;;;;;5065198;28;20414;-81
2022/03/27 10:09:07;;;;;;;14.00;7.25;;;;;;;;;;5067521;28;20025;-83
2022/03/27 10:11:34;;;;;;;15.23;7.75;;;;;;;;;;5075455;28;20067;-84
2022/03/27 10:14:00;;;;;;;13.18;7.68;;;;;;;;;;5109666;28;20028;-83
2022/03/27 10:16:28;;;;;;;13.30;7.38;;;;;;;;;;5076709;28;20059;-82
2022/03/27 10:19:02;;;;;;;12.95;7.35;;;;;;;;;;5072842;28;20115;-83
2022/03/27 10:21:28;;;;;;;14.82;7.13;;;;;;;;;;5076630;28;20054;-82
2022/03/27 10:24:15;;;;;;;8.73;6.15;;;;;;;;;;5079705;28;20028;-83
2022/03/27 10:26:43;;;;;;;13.15;6.88;;;;;;;;;;5086283;28;20036;-84
2022/03/27 10:29:10;;;;;;;10.07;5.82;;;;;;;;;;5074357;28;20031;-82
2022/03/27 10:31:38;;;;;;;11.40;5.82;;;;;;;;;;5080669;28;20028;-82
2022/03/27 10:34:10;;;;;;;13.55;6.40;;;;;;;;;;5085427;28;20107;-82
2022/03/27 10:36:45;;;;;;;9.02;5.97;;;;;;;;;;5073996;28;20020;-83
2022/03/27 10:39:19;;;;;;;10.82;6.95;;;;;;;;;;5074361;28;20035;-83
2022/03/27 10:41:57;;;;;;;15.70;7.55;;;;;;;;;;5078632;28;20377;-87
2022/03/27 10:44:41;;;;;;;15.45;6.72;;;;;;;;;;5070905;28;20039;-86
2022/03/27 10:47:12;;;;;;;12.52;6.85;;;;;;;;;;5069204;28;20036;-84
2022/03/27 10:49:37;;;;;;;13.02;7.20;;;;;;;;;;5076481;28;20028;-86
2022/03/27 10:52:05;;;;;;;15.68;8.20;;;;;;;;;;5079327;28;20380;-83
2022/03/27 10:54:55;;;;;;;12.18;6.63;;;;;;;;;;5084069;28;20055;-83
2022/03/27 10:57:34;;;;;;;;;;;;;;;;;;5081154;28;20039;-83
2022/03/27 11:00:01;;;;;;;14.57;7.18;;;;;;;;;;5079137;28;19916;-86
2022/03/27 11:02:50;;;;;;;11.23;6.28;;;;;;;;;;5077747;28;20364;-88
2022/03/27 11:05:40;;;;;;;11.13;7.65;;;;;;;;;;5077844;28;20020;-85
2022/03/27 11:08:15;;;;;;;13.80;6.90;;;;;;;;;;5083722;28;20032;-88
2022/03/27 11:10:55;;;;;;;13.95;6.97;;;;;;;;;;5074080;28;20380;-88
2022/03/27 11:13:27;;;;;;;13.98;7.30;;;;;;;;;;5077312;28;20029;-87
2022/03/27 11:16:05;;;;;;;15.52;7.43;;;;;;;;;;5078075;28;20411;-87
2022/03/27 11:18:44;;;;;;;12.25;7.03;;;;;;;;;;5077063;28;20480;-84
2022/03/27 11:21:14;;;;;;;12.88;7.25;;;;;;;;;;5084886;28;20175;-85
2022/03/27 11:23:42;;;;;;;12.95;7.32;;;;;;;;;;5079051;28;20031;-85
2022/03/27 11:26:20;;;;;;;13.57;7.07;;;;;;;;;;5083462;28;20115;-91
2022/03/27 11:28:51;;;;;;;19.17;8.18;;;;;;;;;;5083990;28;20487;-86
2022/03/27 11:31:21;;;;;;;17.23;7.38;;;;;;;;;;5083943;28;20031;-85
2022/03/27 11:34:05;;;;;;;14.52;7.28;;;;;;;;;;5079875;28;20051;-84
2022/03/27 11:36:35;;;;;;;12.80;8.07;;;;;;;;;;5084050;28;20028;-82
2022/03/27 11:39:11;;;;;;;14.05;8.00;;;;;;;;;;5081889;28;20475;-85
2022/03/27 11:41:47;;;;;;;15.35;7.78;;;;;;;;;;5078517;28;20124;-84
2022/03/27 11:44:19;;;;;;;11.73;7.78;;;;;;;;;;5084095;28;20043;-84
2022/03/27 11:46:55;;;;;;;14.43;8.38;;;;;;;;;;5077859;28;20028;-84
2022/03/27 11:49:23;;;;;;;13.82;8.77;;;;;;;;;;5082124;28;20115;-84
2022/03/27 11:52:21;;;;;;;16.33;10.68;;;;;;;;;;5078759;28;20024;-84
2022/03/27 11:54:47;;;;;;;20.85;11.15;;;;;;;;;;5079783;28;20027;-83
2022/03/27 11:57:16;;;;;;;17.73;10.25;;;;;;;;;;5077936;28;20497;-83
2022/03/27 11:59:51;;;;;;;18.27;11.38;;;;;;;;;;5078772;28;20016;-83
2022/03/27 12:02:18;;;;;;;18.33;11.15;;;;;;;;;;5082031;28;20496;-82
2022/03/27 12:04:59;;;;;;;19.25;11.95;;;;;;;;;;5080017;28;20021;-84
2022/03/27 12:07:26;;;;;;;19.98;11.75;;;;;;;;;;5081765;28;20090;-82
2022/03/27 12:09:59;;;;;;;16.85;10.55;;;;;;;;;;5082661;28;20035;-84
2022/03/27 12:12:26;;;;;;;18.35;12.00;;;;;;;;;;5086866;28;20040;-86
2022/03/27 12:14:54;;;;;;;19.15;10.93;;;;;;;;;;5080284;28;20024;-83
2022/03/27 12:17:20;;;;;;;19.17;11.30;;;;;;;;;;5083690;28;20540;-83
2022/03/27 12:20:08;;;;;;;15.25;11.07;;;;;;;;;;5073421;28;20016;-84
2022/03/27 12:22:41;;;;;;;19.95;10.95;;;;;;;;;;5081377;28;20077;-86
2022/03/27 12:25:17;;;;;;;16.00;10.80;;;;;;;;;;5083177;28;20094;-84
2022/03/27 12:30:35;;;;;;;15.15;10.43;;;;;;;;;;5071695;28;20136;-86
2022/03/27 12:33:02;;;;;;;18.55;10.75;;;;;;;;;;5078662;28;20020;-85
2022/03/27 12:35:29;;;;;;;16.13;10.63;;;;;;;;;;5078650;28;20031;-84
2022/03/27 12:37:56;;;;;;;13.88;9.35;;;;;;;;;;5077006;28;20123;-86
2022/03/27 12:40:21;;;;;;;15.02;9.77;;;;;;;;;;5080160;28;20143;-84
2022/03/27 12:42:49;;;;;;;16.80;10.05;;;;;;;;;;5077941;28;20515;-87
2022/03/27 12:45:26;;;;;;;15.32;9.73;;;;;;;;;;5080371;28;20017;-84
2022/03/27 12:47:58;;;;;;;15.85;9.60;;;;;;;;;;5079623;28;20032;-84
2022/03/27 12:50:26;;;;;;;13.85;9.77;;;;;;;;;;5079120;28;20028;-84
2022/03/27 12:53:02;;;;;;;18.17;10.57;;;;;;;;;;5076224;28;20082;-85
2022/03/27 12:55:56;;;;;;;16.05;10.63;;;;;;;;;;5072211;28;20246;-85
2022/03/27 12:58:37;;;;;;;16.23;11.13;;;;;;;;;;5079449;28;20051;-86
2022/03/27 13:01:14;;;;;;;14.88;9.90;;;;;;;;;;5076163;28;20025;-86
2022/03/27 13:03:42;;;;;;;16.67;9.60;;;;;;;;;;5083053;28;20073;-87
2022/03/27 13:06:09;;;;;;;19.10;9.80;;;;;;;;;;5084065;28;20253;-85
2022/03/27 13:08:40;;;;;;;13.38;9.27;;;;;;;;;;5073898;28;20972;-86
2022/03/27 13:11:09;;;;;;;15.45;9.40;;;;;;;;;;5078099;28;20084;-87
2022/03/27 13:13:40;;;;;;;15.80;10.23;;;;;;;;;;5080350;28;20028;-84
2022/03/27 13:16:23;;;;;;;15.18;8.98;;;;;;;;;;5076162;28;20032;-85
2022/03/27 13:19:10;;;;;;;14.27;8.70;;;;;;;;;;5074276;28;20086;-84
2022/03/27 13:21:45;;;;;;;15.07;9.82;;;;;;;;;;5074062;28;20028;-85
2022/03/27 13:24:15;;;;;;;15.68;10.55;;;;;;;;;;5077613;28;20411;-84
2022/03/27 13:26:47;;;;;;;15.90;9.98;;;;;;;;;;5074289;28;20067;-86
2022/03/27 13:29:14;;;;;;;14.00;9.40;;;;;;;;;;5076127;28;20032;-88
2022/03/27 13:31:40;;;;;;;19.15;10.27;;;;;;;;;;5081667;28;20031;-86
2022/03/27 13:34:10;;;;;;;15.68;9.70;;;;;;;;;;5076371;28;20041;-84
2022/03/27 13:36:38;;;;;;;14.32;9.68;;;;;;;;;;5073222;28;20032;-84
2022/03/27 13:39:06;;;;;;;13.93;8.85;;;;;;;;;;5082864;28;20040;-84
2022/03/27 13:44:18;;;;;;;12.75;8.90;;;;;;;;;;5073647;28;20163;-85
2022/03/27 13:46:45;;;;;;;12.35;8.75;;;;;;;;;;5080661;28;20028;-85
2022/03/27 13:49:11;;;;;;;16.83;9.48;;;;;;;;;;5084329;28;20024;-84
2022/03/27 13:51:36;;;;;;;13.18;8.60;;;;;;;;;;5077562;28;20021;-86
2022/03/27 13:54:02;;;;;;;16.52;9.43;;;;;;;;;;5084128;28;20036;-85
2022/03/27 13:56:29;;;;;;;16.08;9.65;;;;;;;;;;5085478;28;20039;-85
2022/03/27 13:58:54;;;;;;;15.38;9.68;;;;;;;;;;5076991;28;20115;-84
2022/03/27 14:01:19;;;;;;;14.70;9.23;;;;;;;;;;5088584;28;20103;-86
2022/03/27 14:03:45;;;;;;;13.43;8.70;;;;;;;;;;5083708;28;20040;-82
2022/03/27 14:06:13;;;;;;;13.07;7.60;;;;;;;;;;5085890;28;20609;-86
2022/03/27 14:08:39;;;;;;;13.88;8.07;;;;;;;;;;5078226;28;20067;-84
2022/03/27 14:11:05;;;;;;;13.13;8.23;;;;;;;;;;5085629;28;20229;-85
2022/03/27 14:13:31;;;;;;;12.90;7.30;;;;;;;;;;5072638;28;20032;-86
2022/03/27 14:15:57;;;;;;;15.80;8.32;;;;;;;;;;5076111;28;20029;-85
2022/03/27 14:18:22;;;;;;;13.38;8.35;;;;;;;;;;5076903;28;20674;-86
2022/03/27 14:20:48;;;;;;;13.77;8.20;;;;;;;;;;5079512;28;20101;-88
2022/03/27 14:23:14;;;;;;;11.45;7.93;;;;;;;;;;5075873;28;20043;-87
2022/03/27 14:25:39;;;;;;;13.65;7.05;;;;;;;;;;5080943;28;20048;-84
2022/03/27 14:28:05;;;;;;;13.45;7.97;;;;;;;;;;5080058;28;20028;-87
2022/03/27 14:30:31;;;;;;;15.40;9.13;;;;;;;;;;5082906;28;20047;-85
2022/03/27 14:32:57;;;;;;;17.80;12.73;;;;;;;;;;5075740;28;20368;-86
2022/03/27 14:35:22;;;;;;;15.13;9.77;;;;;;;;;;5072013;28;20021;-85
2022/03/27 14:37:48;;;;;;;15.27;8.50;;;;;;;;;;5080533;28;20043;-88
2022/03/27 14:40:14;;;;;;;17.88;8.52;;;;;;;;;;5079791;28;20047;-85
2022/03/27 14:42:41;;;;;;;11.55;7.50;;;;;;;;;;5080276;28;20099;-87
2022/03/27 14:45:08;;;;;;;12.15;8.40;;;;;;;;;;5082837;28;20029;-88
2022/03/27 14:47:35;;;;;;;13.32;8.80;;;;;;;;;;5079524;28;20025;-88